Flight Track Log - Related Links

Times and Time Zones

All times are in EDT time to prevent confusion due to time zone crossing. See the AAL1870 flight status page for this flight to view local times or setup timezone preferences in your user account.

Time Position Orientation Groundspeed Altitude Reporting Facility
EDT Latitude Longitude Course Direction KTS MPH feet Rate Location/Type
Fri 08:38:12 PM 33.9330 -118.4400 260° West 164 189 1,700  Level FlightAware ADS-B
Fri 08:38:42 PM 33.9280 -118.4660 257° West 200 230 2,100 933 Climbing FlightAware ADS-B
Fri 08:38:57 PM 33.9220 -118.4830 247° West 221 254 2,400 1,500 Climbing FlightAware ADS-B
Fri 08:39:22 PM 33.9090 -118.5210 248° West 257 296 3,100 2,160 Climbing FlightAware ADS-B
Fri 08:39:47 PM 33.8990 -118.5480 246° West 257 296 4,200 3,067 Climbing FlightAware ADS-B
Fri 08:40:07 PM 33.8700 -118.5810 223° Southwest 277 319 5,400 2,800 Climbing FlightAware ADS-B
Fri 08:40:47 PM 33.8240 -118.5560 156° South 283 326 7,000 2,400 Climbing FlightAware ADS-B
Fri 08:41:02 PM 33.8180 -118.5370 111° Southeast 283 326 7,600 2,160 Climbing FlightAware ADS-B
Fri 08:41:12 PM 33.8160 -118.5240 100° East 285 328 7,900 2,400 Climbing FlightAware ADS-B
Fri 08:41:42 PM 33.8360 -118.4810 61° Northeast 284 327 9,200 2,533 Climbing FlightAware ADS-B
Fri 08:41:57 PM 33.8540 -118.4720 23° Northeast 280 322 9,800 1,855 Climbing FlightAware ADS-B
Fri 08:42:37 PM 33.9050 -118.4470 22° Northeast 321 369 10,900 2,057 Climbing FlightAware ADS-B
Fri 08:43:07 PM 33.9440 -118.4140 35° Northeast 341 392 12,200 2,743 Climbing FlightAware ADS-B
Fri 08:43:47 PM 33.9810 -118.3500 55° Northeast 355 409 14,100 2,894 Climbing FlightAware ADS-B
Fri 08:44:32 PM 34.0220 -118.2770 56° Northeast 365 420 16,300 2,824 Climbing FlightAware ADS-B
Fri 08:45:12 PM 34.0600 -118.2080 56° Northeast 371 427 18,100 2,550 Climbing FlightAware ADS-B
Fri 08:45:52 PM 34.1020 -118.1400 53° Northeast 379 436 19,700 2,329 Climbing FlightAware ADS-B
Fri 08:46:37 PM 34.1530 -118.0660 50° Northeast 391 450 21,400 2,188 Climbing FlightAware ADS-B
Fri 08:47:17 PM 34.2010 -117.9970 50° Northeast 403 464 22,800 1,906 Climbing FlightAware ADS-B
Fri 08:48:02 PM 34.2540 -117.9200 50° Northeast 420 483 24,100 1,765 Climbing FlightAware ADS-B
Fri 08:48:42 PM 34.3050 -117.8460 50° Northeast 431 496 25,300 1,950 Climbing FlightAware ADS-B
Fri 08:49:22 PM 34.3570 -117.7700 50° Northeast 434 499 26,700 1,906 Climbing FlightAware ADS-B
Fri 08:50:07 PM 34.4150 -117.6840 51° Northeast 441 507 28,000 1,624 Climbing FlightAware ADS-B
Fri 08:50:47 PM 34.4660 -117.6100 50° Northeast 446 513 29,000 1,482 Climbing FlightAware ADS-B
Fri 08:51:32 PM 34.5280 -117.5200 50° Northeast 451 519 30,100 1,412 Climbing FlightAware ADS-B
Fri 08:52:12 PM 34.5800 -117.4430 51° Northeast 458 527 31,000 1,412 Climbing FlightAware ADS-B
Fri 08:52:57 PM 34.6400 -117.3540 51° Northeast 461 531 32,100 1,553 Climbing FlightAware ADS-B
Fri 08:53:37 PM 34.6920 -117.2780 50° Northeast 458 527 33,200 1,650 Climbing FlightAware ADS-B
Fri 08:54:17 PM 34.7480 -117.1940 51° Northeast 454 522 34,300 1,412 Climbing FlightAware ADS-B
Fri 08:55:02 PM 34.8080 -117.1050 51° Northeast 455 524 35,200 1,120 Climbing FlightAware ADS-B
Fri 08:55:32 PM 34.8460 -117.0480 51° Northeast 457 526 35,700 1,011 Climbing FlightAware ADS-B
Fri 08:56:37 PM 34.9340 -116.9170 51° Northeast 460 529 36,800 686 Climbing FlightAware ADS-B
Fri 08:57:17 PM 34.9830 -116.8440 51° Northeast 463 533 36,900 75 Climbing FlightAware ADS-B
Fri 08:57:57 PM 35.0290 -116.7750 51° Northeast 463 533 36,900 494 Level FlightAware ADS-B
Fri 08:58:42 PM 35.1060 -116.6590 51° Northeast 38,400 586 Climbing FlightAware ADS-B
Fri 09:01:32 PM 35.3330 -116.3150 51° Northeast 459 528 39,000 160 Climbing FlightAware ADS-B
Fri 09:02:27 PM 35.4030 -116.2080 51° Northeast 458 527 39,000  Level FlightAware ADS-B
Fri 09:03:07 PM 35.4480 -116.1390 51° Northeast 458 527 39,000  Level FlightAware ADS-B
Fri 09:03:47 PM 35.4930 -116.0710 51° Northeast 458 527 39,000  Level FlightAware ADS-B
Fri 09:04:27 PM 35.5390 -116.0020 51° Northeast 458 527 39,000  Level FlightAware ADS-B
Fri 09:05:17 PM 35.5950 -115.9160 51° Northeast 458 527 39,000  Level FlightAware ADS-B
Fri 09:06:02 PM 35.6940 -115.7620 52° Northeast 469 540 39,000  Level FlightAware ADS-B
Fri 09:06:47 PM 35.7580 -115.6630 51° Northeast 470 541 39,000  Level FlightAware ADS-B
Fri 09:07:27 PM 35.8120 -115.5790 52° Northeast 473 544 39,000  Level FlightAware ADS-B
Fri 09:08:12 PM 35.8710 -115.4880 51° Northeast 474 545 39,000  Level FlightAware ADS-B
Fri 09:08:52 PM 35.9250 -115.4020 52° Northeast 469 540 39,000  Level FlightAware ADS-B
Fri 09:09:32 PM 35.9790 -115.3170 52° Northeast 465 535 39,000  Level FlightAware ADS-B
Fri 09:10:17 PM 36.0400 -115.2220 52° Northeast 466 536 39,000  Level FlightAware ADS-B
Fri 09:10:57 PM 36.0850 -115.1300 59° Northeast 482 555 39,000  Level FlightAware ADS-B
Fri 09:11:37 PM 36.1130 -115.0240 72° East 492 566 39,000  Level FlightAware ADS-B
Fri 09:12:22 PM 36.1410 -114.9050 74° East 493 567 39,000  Level FlightAware ADS-B
Fri 09:13:02 PM 36.1680 -114.7970 73° East 494 568 39,000  Level FlightAware ADS-B
Fri 09:13:42 PM 36.1940 -114.6890 73° East 495 570 39,000  Level FlightAware ADS-B
Fri 09:14:27 PM 36.2230 -114.5650 74° East 493 567 39,000  Level FlightAware ADS-B
Fri 09:15:12 PM 36.2520 -114.4450 73° East 492 566 39,000  Level FlightAware ADS-B
Fri 09:15:57 PM 36.2800 -114.3250 74° East 491 565 39,000  Level FlightAware ADS-B
Fri 09:16:37 PM 36.3070 -114.2130 73° East 492 566 39,000  Level FlightAware ADS-B
Fri 09:17:17 PM 36.3310 -114.1090 74° East 491 565 39,000  Level FlightAware ADS-B
Fri 09:18:02 PM 36.3600 -113.9870 74° East 490 564 39,000  Level FlightAware ADS-B
Fri 09:18:42 PM 36.3850 -113.8790 74° East 487 560 39,000  Level FlightAware ADS-B
Fri 09:19:22 PM 36.4100 -113.7680 74° East 486 559 39,000  Level FlightAware ADS-B
Fri 09:20:07 PM 36.4370 -113.6510 74° East 484 557 39,000  Level FlightAware ADS-B
Fri 09:20:47 PM 36.4620 -113.5440 74° East 484 557 39,000  Level FlightAware ADS-B
Fri 09:21:27 PM 36.4860 -113.4380 74° East 486 559 39,000  Level FlightAware ADS-B
Fri 09:22:12 PM 36.5130 -113.3170 74° East 487 560 39,000  Level FlightAware ADS-B
Fri 09:22:57 PM 36.5400 -113.1990 74° East 488 562 39,000  Level FlightAware ADS-B
Fri 09:23:32 PM 36.5620 -113.1020 74° East 488 562 39,000  Level FlightAware ADS-B
Fri 09:24:32 PM 36.5970 -112.9460 74° East 488 562 39,000  Level FlightAware ADS-B
Fri 09:25:12 PM 36.6180 -112.8540 74° East 488 562 39,000  Level FlightAware ADS-B
Fri 09:25:57 PM 36.6480 -112.7170 75° East 485 558 39,000  Level FlightAware ADS-B
Fri 09:26:32 PM 36.6680 -112.6280 74° East 485 558 39,000  Level FlightAware ADS-B
Fri 09:27:22 PM 36.6940 -112.5140 74° East 485 558 39,000  Level FlightAware ADS-B
Fri 09:28:02 PM 36.7150 -112.4220 74° East 485 558 39,000  Level FlightAware ADS-B
Fri 09:28:42 PM 36.7360 -112.3310 74° East 485 558 39,000  Level FlightAware ADS-B
Fri 09:29:22 PM 36.7570 -112.2390 74° East 485 558 39,000  Level FlightAware ADS-B
Fri 09:30:02 PM 36.7780 -112.1470 74° East 485 558 39,000  Level FlightAware ADS-B
Fri 09:30:52 PM 36.8050 -112.0330 73° East 485 558 39,000  Level FlightAware ADS-B
Fri 09:31:32 PM 36.8260 -111.9410 74° East 485 558 39,000  Level FlightAware ADS-B
Fri 09:32:12 PM 36.8470 -111.8500 74° East 485 558 39,000  Level FlightAware ADS-B
Fri 09:32:52 PM 36.8680 -111.7580 74° East 485 558 39,000  Level FlightAware ADS-B
Fri 09:33:32 PM 36.8890 -111.6660 74° East 485 558 39,000  Level FlightAware ADS-B
Fri 09:34:22 PM 36.9150 -111.5520 74° East 485 558 39,000  Level FlightAware ADS-B
Fri 09:35:02 PM 36.9360 -111.4600 74° East 485 558 39,000  Level FlightAware ADS-B
Fri 09:35:42 PM 36.9570 -111.3680 74° East 485 558 39,000  Level FlightAware ADS-B
Fri 09:36:20 PM 37.0017 -111.0531 74° East 481 554 39,000  Level Denver Center
Fri 09:37:22 PM 37.0350 -110.8914 75° East 483 556 39,000  Level Denver Center
Fri 09:38:24 PM 37.0736 -110.6969 76° East 483 556 39,000  Level Denver Center
Fri 09:39:26 PM 37.1061 -110.5319 76° East 489 563 39,000  Level Denver Center
Fri 09:40:28 PM 37.1397 -110.3650 76° East 494 568 39,000  Level Denver Center
Fri 09:41:30 PM 37.1736 -110.1992 76° East 492 566 39,000  Level Denver Center
Fri 09:42:32 PM 37.2078 -110.0233 76° East 495 570 39,000  Level Denver Center
Fri 09:43:33 PM 37.2383 -109.8625 77° East 495 570 39,000  Level Denver Center
Fri 09:44:35 PM 37.2756 -109.6747 76° East 497 572 39,000  Level Denver Center
Fri 09:45:37 PM 37.3064 -109.5108 77° East 500 575 39,000  Level Denver Center
Fri 09:46:39 PM 37.3425 -109.3181 77° East 507 583 39,000  Level Denver Center
Fri 09:47:41 PM 37.3739 -109.1525 77° East 509 586 39,000  Level Denver Center
Fri 09:48:43 PM 37.4100 -108.9619 77° East 503 579 39,000  Level Denver Center
Fri 09:49:45 PM 37.4397 -108.7975 77° East 502 578 39,000  Level Denver Center
Fri 09:50:47 PM 37.4739 -108.6047 77° East 504 580 39,000  Level Denver Center
Fri 09:51:49 PM 37.5039 -108.4431 77° East 500 575 39,000  Level Denver Center
Fri 09:52:51 PM 37.5328 -108.2819 77° East 493 567 39,000  Level Denver Center
Fri 09:53:52 PM 37.5661 -108.0911 78° East 498 573 39,000  Level Denver Center
Fri 09:54:54 PM 37.5964 -107.9281 77° East 498 573 39,000  Level Denver Center
Fri 09:55:56 PM 37.6289 -107.7353 78° East 502 578 39,000  Level Denver Center
Fri 10:02:13 PM 37.8108 -106.6640 78° East 492 566 39,000  Level FlightAware ADS-B
Fri 10:02:43 PM 37.8250 -106.5770 78° East 492 566 39,000  Level FlightAware ADS-B
Fri 10:03:14 PM 37.8389 -106.4920 78° East 493 567 39,000  Level FlightAware ADS-B
Fri 10:03:44 PM 37.8525 -106.4070 79° East 493 567 39,000  Level FlightAware ADS-B
Fri 10:04:14 PM 37.8663 -106.3210 78° East 494 568 39,000  Level FlightAware ADS-B
Fri 10:04:45 PM 37.8801 -106.2350 78° East 494 568 39,000  Level FlightAware ADS-B
Fri 10:05:16 PM 37.8942 -106.1470 78° East 494 568 39,000  Level FlightAware ADS-B
Fri 10:05:47 PM 37.9081 -106.0590 79° East 495 570 39,000  Level FlightAware ADS-B
Fri 10:06:19 PM 37.9222 -105.9690 79° East 493 567 39,000  Level FlightAware ADS-B
Fri 10:06:49 PM 37.9357 -105.8830 79° East 487 560 39,000  Level FlightAware ADS-B
Fri 10:07:20 PM 37.9487 -105.7990 79° East 485 558 39,000  Level FlightAware ADS-B
Fri 10:07:50 PM 37.9620 -105.7150 79° East 483 556 39,000  Level FlightAware ADS-B
Fri 10:08:20 PM 37.9748 -105.6320 79° East 483 556 39,000  Level FlightAware ADS-B
Fri 10:08:50 PM 37.9880 -105.5480 79° East 482 555 39,000  Level FlightAware ADS-B
Fri 10:09:21 PM 38.0012 -105.4620 79° East 481 554 39,000  Level FlightAware ADS-B
Fri 10:09:52 PM 38.0143 -105.3760 79° East 481 554 39,000  Level FlightAware ADS-B
Fri 10:10:23 PM 38.0269 -105.2930 79° East 479 551 39,000  Level FlightAware ADS-B
Fri 10:10:53 PM 38.0394 -105.2100 79° East 479 551 39,000  Level FlightAware ADS-B
Fri 10:11:23 PM 38.0519 -105.1270 79° East 478 550 39,000  Level FlightAware ADS-B
Fri 10:11:54 PM 38.0646 -105.0420 79° East 476 548 39,000  Level FlightAware ADS-B
Fri 10:12:27 PM 38.0778 -104.9520 79° East 476 548 39,000  Level FlightAware ADS-B
Fri 10:12:57 PM 38.0900 -104.8700 79° East 476 548 39,000  Level FlightAware ADS-B
Fri 10:13:29 PM 38.1031 -104.7810 79° East 476 548 39,000  Level FlightAware ADS-B
Fri 10:14:01 PM 38.1159 -104.6940 79° East 477 549 39,000  Level FlightAware ADS-B
Fri 10:14:31 PM 38.1279 -104.6120 79° East 477 549 39,000  Level FlightAware ADS-B
Fri 10:15:04 PM 38.1410 -104.5220 79° East 477 549 39,000  Level FlightAware ADS-B
Fri 10:15:36 PM 38.1538 -104.4330 80° East 479 551 39,000  Level FlightAware ADS-B
Fri 10:16:07 PM 38.1658 -104.3490 80° East 479 551 39,000  Level FlightAware ADS-B
Fri 10:16:41 PM 38.1793 -104.2540 80° East 480 552 39,000  Level FlightAware ADS-B
Fri 10:17:12 PM 38.1915 -104.1680 80° East 483 556 39,000  Level FlightAware ADS-B
Fri 10:17:44 PM 38.2041 -104.0790 80° East 487 560 39,000  Level FlightAware ADS-B
Fri 10:18:14 PM 38.2161 -103.9940 80° East 489 563 39,000  Level FlightAware ADS-B
Fri 10:18:45 PM 38.2285 -103.9050 80° East 489 563 39,000  Level FlightAware ADS-B
Fri 10:19:16 PM 38.2403 -103.8190 80° East 488 562 39,000  Level FlightAware ADS-B
Fri 10:19:46 PM 38.2519 -103.7340 80° East 487 560 39,000  Level FlightAware ADS-B
Fri 10:20:16 PM 38.2636 -103.6490 80° East 489 563 39,000  Level FlightAware ADS-B
Fri 10:20:48 PM 38.2761 -103.5580 80° East 488 562 39,000  Level FlightAware ADS-B
Fri 10:21:19 PM 38.2877 -103.4730 80° East 487 560 39,000  Level FlightAware ADS-B
Fri 10:21:49 PM 38.2991 -103.3880 80° East 488 562 39,000  Level FlightAware ADS-B
Fri 10:22:20 PM 38.3109 -103.2980 80° East 489 563 39,000  Level FlightAware ADS-B
Fri 10:22:51 PM 38.3226 -103.2100 80° East 492 566 39,000  Level FlightAware ADS-B
Fri 10:23:22 PM 38.3340 -103.1230 80° East 493 567 39,000  Level FlightAware ADS-B
Fri 10:23:54 PM 38.3460 -103.0320 80° East 493 567 39,000  Level FlightAware ADS-B
Fri 10:24:24 PM 38.3573 -102.9460 80° East 490 564 39,000  Level FlightAware ADS-B
Fri 10:24:54 PM 38.3685 -102.8600 81° East 489 563 39,000  Level FlightAware ADS-B
Fri 10:25:27 PM 38.3806 -102.7660 81° East 491 565 39,000  Level FlightAware ADS-B
Fri 10:25:58 PM 38.3918 -102.6790 81° East 492 566 39,000  Level FlightAware ADS-B
Fri 10:26:28 PM 38.4030 -102.5920 81° East 491 565 39,000  Level FlightAware ADS-B
Fri 10:27:00 PM 38.4145 -102.5010 81° East 491 565 39,000  Level FlightAware ADS-B
Fri 10:27:31 PM 38.4255 -102.4120 81° East 491 565 39,000  Level FlightAware ADS-B
Fri 10:28:02 PM 38.4363 -102.3260 81° East 493 567 39,000  Level FlightAware ADS-B
Fri 10:28:32 PM 38.4474 -102.2390 81° East 496 571 39,000  Level FlightAware ADS-B
Fri 10:29:04 PM 38.4590 -102.1450 81° East 498 573 39,000  Level FlightAware ADS-B
Fri 10:29:35 PM 38.4699 -102.0560 81° East 498 573 39,000  Level FlightAware ADS-B
Fri 10:30:05 PM 38.4805 -101.9690 81° East 497 572 39,000  Level FlightAware ADS-B
Fri 10:30:35 PM 38.4909 -101.8830 81° East 495 570 39,000  Level FlightAware ADS-B
Fri 10:31:05 PM 38.5013 -101.7960 81° East 494 568 39,000  Level FlightAware ADS-B
Fri 10:31:36 PM 38.5119 -101.7070 81° East 492 566 39,000  Level FlightAware ADS-B
Fri 10:32:02 PM 38.5203 -101.6408 81° East 493 567 39,000  Level Denver Center
Fri 10:33:04 PM 38.5386 -101.4775 82° East 486 559 39,000  Level Denver Center
Fri 10:34:05 PM 38.5578 -101.3131 81° East 488 562 39,000  Level Denver Center
Fri 10:35:07 PM 38.5792 -101.1228 82° East 483 556 39,000  Level Denver Center
Fri 10:36:09 PM 38.5978 -100.9606 82° East 482 555 39,000  Level Denver Center
Fri 10:37:11 PM 38.6189 -100.7728 82° East 476 548 39,000  Level Denver Center
Fri 10:38:12 PM 38.6375 -100.6097 82° East 482 555 39,000  Level Denver Center
Fri 10:39:14 PM 38.6575 -100.4206 82° East 480 552 39,000  Level Denver Center
Fri 10:40:16 PM 38.6744 -100.2594 82° East 477 549 39,000  Level Denver Center
Fri 10:41:18 PM 38.6922 -100.0986 82° East 477 549 39,000  Level Denver Center
Fri 10:42:19 PM 38.7117 -99.9094 82° East 481 554 39,000  Level Denver Center
Fri 10:43:21 PM 38.7289 -99.7475 82° East 480 552 39,000  Level Denver Center
Fri 10:44:23 PM 38.7478 -99.5550 83° East 486 559 39,000  Level Denver Center
Fri 10:45:25 PM 38.7642 -99.3903 83° East 486 559 39,000  Level Denver Center
Fri 10:46:05 PM 38.7722 -99.2914 84° East 486 559 39,000  Level Kansas City Center
Fri 10:47:06 PM 38.7906 -99.1164 82° East 493 567 39,000  Level Kansas City Center
Fri 10:48:05 PM 38.8075 -98.9433 83° East 489 563 39,000  Level Kansas City Center
Fri 10:49:06 PM 38.8228 -98.7694 84° East 491 565 39,000  Level Kansas City Center
Fri 10:50:07 PM 38.8394 -98.5967 83° East 489 563 39,000  Level Kansas City Center
Fri 10:51:10 PM 38.8553 -98.4236 83° East 488 562 39,000  Level Kansas City Center
Fri 10:56:52 PM 38.9780 -97.4230 83° East 477 549 39,000  Level FlightAware ADS-B
Fri 10:57:32 PM 39.0020 -97.3320 71° East 477 549 39,000  Level FlightAware ADS-B
Fri 10:58:12 PM 39.0270 -97.2410 70° East 477 549 39,000  Level FlightAware ADS-B
Fri 10:59:02 PM 39.0570 -97.1270 71° East 477 549 39,000  Level FlightAware ADS-B
Fri 10:59:42 PM 39.0820 -97.0350 71° East 477 549 39,000  Level FlightAware ADS-B
Fri 11:00:22 PM 39.1060 -96.9440 71° East 477 549 39,000  Level FlightAware ADS-B
Fri 11:01:02 PM 39.1300 -96.8520 71° East 477 549 39,000  Level FlightAware ADS-B
Fri 11:01:42 PM 39.1550 -96.7610 70° East 477 549 39,000  Level FlightAware ADS-B
Fri 11:02:32 PM 39.1850 -96.6460 71° East 477 549 39,000  Level FlightAware ADS-B
Fri 11:03:12 PM 39.2100 -96.5550 70° East 477 549 39,000  Level FlightAware ADS-B
Fri 11:03:52 PM 39.2340 -96.4630 71° East 477 549 39,000  Level FlightAware ADS-B
Fri 11:04:37 PM 39.2520 -96.3650 77° East 488 562 39,000  Level FlightAware ADS-B
Fri 11:05:17 PM 39.2900 -96.2160 72° East 491 565 39,000  Level FlightAware ADS-B
Fri 11:06:02 PM 39.3200 -96.0950 72° East 494 568 39,000  Level FlightAware ADS-B
Fri 11:06:47 PM 39.3460 -95.9900 72° East 496 571 39,000  Level FlightAware ADS-B
Fri 11:07:27 PM 39.3780 -95.8630 72° East 499 574 39,000  Level FlightAware ADS-B
Fri 11:08:07 PM 39.4080 -95.7400 72° East 502 578 39,000  Level FlightAware ADS-B
Fri 11:08:52 PM 39.4440 -95.5940 72° East 503 579 39,000  Level FlightAware ADS-B
Fri 11:09:32 PM 39.4710 -95.4860 72° East 505 581 39,000  Level FlightAware ADS-B
Fri 11:10:17 PM 39.5060 -95.3430 72° East 502 578 39,000  Level FlightAware ADS-B
Fri 11:10:57 PM 39.5450 -95.1790 73° East 499 574 39,000  Level FlightAware ADS-B
Fri 11:11:37 PM 39.5650 -95.0950 73° East 500 575 39,000  Level FlightAware ADS-B
Fri 11:12:17 PM 39.5840 -95.0190 72° East 501 577 39,000  Level FlightAware ADS-B
Fri 11:13:02 PM 39.6130 -94.8980 73° East 503 579 39,000  Level FlightAware ADS-B
Fri 11:13:47 PM 39.6370 -94.7970 73° East 504 580 39,000  Level FlightAware ADS-B
Fri 11:14:27 PM 39.6650 -94.6750 73° East 504 580 39,000  Level FlightAware ADS-B
Fri 11:15:07 PM 39.7540 -94.3520 70° East 501 577 39,000  Level FlightAware ADS-B
Fri 11:15:52 PM 39.7890 -94.2300 69° East 501 577 39,000  Level FlightAware ADS-B
Fri 11:16:32 PM 39.8210 -94.1170 70° East 501 577 39,000  Level FlightAware ADS-B
Fri 11:17:12 PM 39.8540 -94.0030 69° East 501 577 39,000  Level FlightAware ADS-B
Fri 11:17:57 PM 39.8900 -93.8750 70° East 500 575 39,000  Level FlightAware ADS-B
Fri 11:18:37 PM 39.9220 -93.7620 70° East 499 574 39,000  Level FlightAware ADS-B
Fri 11:19:17 PM 39.9540 -93.6470 70° East 499 574 39,000  Level FlightAware ADS-B
Fri 11:20:02 PM 39.9880 -93.5240 70° East 498 573 39,000  Level FlightAware ADS-B
Fri 11:20:47 PM 40.0240 -93.3930 70° East 497 572 39,000  Level FlightAware ADS-B
Fri 11:21:27 PM 40.0550 -93.2840 70° East 495 570 39,000  Level FlightAware ADS-B
Fri 11:22:07 PM 40.0850 -93.1710 71° East 490 564 39,000  Level FlightAware ADS-B
Fri 11:22:52 PM 40.1190 -93.0490 70° East 488 562 39,000  Level FlightAware ADS-B
Fri 11:23:32 PM 40.1490 -92.9380 70° East 487 560 39,000  Level FlightAware ADS-B
Fri 11:24:12 PM 40.1780 -92.8330 70° East 487 560 39,000  Level FlightAware ADS-B
Fri 11:24:57 PM 40.2120 -92.7040 71° East 487 560 39,000  Level FlightAware ADS-B
Fri 11:25:37 PM 40.2440 -92.5870 70° East 489 563 39,000  Level FlightAware ADS-B
Fri 11:26:17 PM 40.2730 -92.4770 71° East 490 564 39,000  Level FlightAware ADS-B
Fri 11:27:02 PM 40.3070 -92.3500 71° East 494 568 39,000  Level FlightAware ADS-B
Fri 11:27:42 PM 40.3370 -92.2360 71° East 498 573 39,000  Level FlightAware ADS-B
Fri 11:28:27 PM 40.3700 -92.1110 71° East 499 574 39,000 -494 Level FlightAware ADS-B
Fri 11:29:07 PM 40.3990 -92.0000 71° East 498 573 38,300 -933 Descending FlightAware ADS-B
Fri 11:29:57 PM 40.4360 -91.8610 71° East 493 567 37,600 -1,680 Descending FlightAware ADS-B
Fri 11:30:47 PM 40.4740 -91.7140 71° East 493 567 35,500 -2,133 Descending FlightAware ADS-B
Fri 11:31:27 PM 40.5030 -91.6000 71° East 484 557 34,400 -1,624 Descending FlightAware ADS-B
Fri 11:32:12 PM 40.5340 -91.4770 72° East 487 560 33,200 -988 Descending FlightAware ADS-B
Fri 11:32:52 PM 40.5670 -91.3640 69° East 483 556 33,000 -150 Descending FlightAware ADS-B
Fri 11:33:32 PM 40.6050 -91.2550 65° Northeast 484 557 33,000  Level FlightAware ADS-B
Fri 11:34:17 PM 40.6450 -91.1370 66° East 485 558 33,000  Level FlightAware ADS-B
Fri 11:34:57 PM 40.6820 -91.0290 66° East 485 558 33,000  Level FlightAware ADS-B
Fri 11:35:37 PM 40.7180 -90.9230 66° East 486 559 33,000  Level FlightAware ADS-B
Fri 11:36:22 PM 40.7600 -90.7970 66° East 487 560 33,000  Level FlightAware ADS-B
Fri 11:37:02 PM 40.7960 -90.6920 66° East 485 558 33,000  Level FlightAware ADS-B
Fri 11:37:47 PM 40.8360 -90.5710 66° East 486 559 33,000  Level FlightAware ADS-B
Fri 11:38:27 PM 40.8720 -90.4630 66° East 486 559 33,000  Level FlightAware ADS-B
Fri 11:39:07 PM 40.9090 -90.3520 66° East 487 560 33,000  Level FlightAware ADS-B
Fri 11:39:52 PM 40.9510 -90.2280 66° East 487 560 33,000 -282 Level FlightAware ADS-B
Fri 11:40:32 PM 40.9860 -90.1210 67° East 478 550 32,600 -1,725 Descending FlightAware ADS-B
Fri 11:41:12 PM 41.0200 -90.0170 67° East 482 555 30,700 -2,925 Descending FlightAware ADS-B
Fri 11:41:52 PM 41.0570 -89.9040 66° East 480 552 28,700 -2,700 Descending FlightAware ADS-B
Fri 11:42:32 PM 41.0910 -89.7990 67° East 466 536 27,100 -2,325 Descending FlightAware ADS-B
Fri 11:43:12 PM 41.1260 -89.6940 66° East 451 519 25,600 -2,259 Descending FlightAware ADS-B
Fri 11:43:57 PM 41.1620 -89.5840 66° East 435 501 23,900 -2,047 Descending FlightAware ADS-B
Fri 11:44:37 PM 41.1980 -89.4920 62° Northeast 421 484 22,700 -1,906 Descending FlightAware ADS-B
Fri 11:45:22 PM 41.2400 -89.3900 61° Northeast 414 476 21,200 -1,976 Descending FlightAware ADS-B
Fri 11:46:02 PM 41.2760 -89.3000 62° Northeast 408 470 19,900 -1,950 Descending FlightAware ADS-B
Fri 11:46:42 PM 41.3100 -89.2150 62° Northeast 400 460 18,600 -1,906 Descending FlightAware ADS-B
Fri 11:47:27 PM 41.3480 -89.1200 62° Northeast 389 448 17,200 -1,906 Descending FlightAware ADS-B
Fri 11:48:07 PM 41.3830 -89.0320 62° Northeast 384 442 15,900 -1,920 Descending FlightAware ADS-B
Fri 11:48:42 PM 41.4110 -88.9630 62° Northeast 376 433 14,800 -1,800 Descending FlightAware ADS-B
Fri 11:49:27 PM 41.4470 -88.8730 62° Northeast 364 419 13,500 -1,765 Descending FlightAware ADS-B
Fri 11:50:07 PM 41.4790 -88.7910 62° Northeast 356 410 12,300 -1,725 Descending FlightAware ADS-B
Fri 11:50:47 PM 41.5100 -88.7140 62° Northeast 357 411 11,200 -847 Descending FlightAware ADS-B
Fri 11:51:32 PM 41.5440 -88.6280 62° Northeast 353 406 11,100 -71 Descending FlightAware ADS-B
Fri 11:52:12 PM 41.5740 -88.5510 62° Northeast 352 405 11,100  Level FlightAware ADS-B
Fri 11:52:52 PM 41.6050 -88.4760 61° Northeast 350 403 11,100  Level FlightAware ADS-B
Fri 11:53:37 PM 41.6480 -88.4000 53° Northeast 346 398 11,100 -71 Level FlightAware ADS-B
Fri 11:54:17 PM 41.6890 -88.3300 52° Northeast 322 371 11,000 -424 Descending FlightAware ADS-B
Fri 11:55:02 PM 41.7260 -88.2660 52° Northeast 294 338 10,500 -918 Descending FlightAware ADS-B
Fri 11:55:42 PM 41.7590 -88.2090 52° Northeast 285 328 9,700 -1,114 Descending FlightAware ADS-B
Fri 11:56:12 PM 41.7830 -88.1680 52° Northeast 277 319 9,200 -982 Descending FlightAware ADS-B
Fri 11:56:37 PM 41.8020 -88.1350 52° Northeast 269 310 8,800 -1,200 Descending FlightAware ADS-B
Fri 11:57:07 PM 41.8250 -88.0950 52° Northeast 269 310 8,100 -1,309 Descending FlightAware ADS-B
Fri 11:57:32 PM 41.8430 -88.0630 53° Northeast 266 306 7,600 -764 Descending FlightAware ADS-B
Fri 11:58:02 PM 41.8650 -88.0230 54° Northeast 241 277 7,400 -600 Descending FlightAware ADS-B
Fri 11:58:32 PM 41.8810 -87.9870 59° Northeast 239 275 7,000 -400 Descending FlightAware ADS-B
Fri 11:58:47 PM 41.8840 -87.9640 80° East 227 261 7,100 150 Climbing FlightAware ADS-B
Fri 11:59:12 PM 41.8840 -87.9340 90° East 209 241 7,100  Level FlightAware ADS-B
Fri 11:59:42 PM 41.8840 -87.8950 90° East 207 238 7,100  Level FlightAware ADS-B
Sat 12:00:07 AM 41.8840 -87.8630 90° East 208 239 7,100  Level FlightAware ADS-B
Sat 12:00:37 AM 41.8840 -87.8220 90° East 206 237 7,100  Level FlightAware ADS-B
Sat 12:01:07 AM 41.8840 -87.7880 90° East 207 238 7,100 -343 Level FlightAware ADS-B
Sat 12:01:47 AM 41.8840 -87.7350 90° East 208 239 6,700 -831 Descending FlightAware ADS-B
Sat 12:02:12 AM 41.8840 -87.7020 90° East 206 237 6,200 -1,091 Descending FlightAware ADS-B
Sat 12:02:42 AM 41.8840 -87.6640 90° East 204 235 5,700 -1,100 Descending FlightAware ADS-B
Sat 12:03:12 AM 41.8840 -87.6240 90° East 206 237 5,100 -600 Descending FlightAware ADS-B
Sat 12:03:42 AM 41.8840 -87.5860 90° East 204 235 5,100  Level FlightAware ADS-B
Sat 12:03:57 AM 41.8840 -87.5700 90° East 201 231 5,100  Level FlightAware ADS-B
Sat 12:04:22 AM 41.8840 -87.5360 90° East 201 231 5,100  Level FlightAware ADS-B
Sat 12:04:52 AM 41.8840 -87.5000 90° East 200 230 5,100  Level FlightAware ADS-B
Sat 12:05:22 AM 41.8840 -87.4620 90° East 197 227 5,100  Level FlightAware ADS-B
Sat 12:05:37 AM 41.8830 -87.4440 94° East 198 228 5,100  Level FlightAware ADS-B
Sat 12:06:02 AM 41.8830 -87.4130 90° East 200 230 5,100  Level FlightAware ADS-B
Sat 12:06:12 AM 41.8830 -87.4040 90° East 200 230 5,100 -800 Level FlightAware ADS-B
Sat 12:06:47 AM 41.9000 -87.3750 52° Northeast 165 190 4,500 -1,000 Descending FlightAware ADS-B
Sat 12:07:12 AM 41.9190 -87.3730 North 165 190 4,100 -686 Descending FlightAware ADS-B
Sat 12:07:22 AM 41.9260 -87.3730 360° North 165 190 4,100  Level FlightAware ADS-B
Sat 12:07:42 AM 41.9370 -87.3820 329° Northwest 153 176 4,100  Level FlightAware ADS-B
Sat 12:08:07 AM 41.9460 -87.4050 298° West 153 176 4,100  Level FlightAware ADS-B
Sat 12:08:37 AM 41.9550 -87.4300 296° West 152 175 4,100  Level FlightAware ADS-B
Sat 12:09:02 AM 41.9630 -87.4510 297° West 159 183 4,100  Level FlightAware ADS-B
Sat 12:09:32 AM 41.9690 -87.4820 285° West 165 190 4,100  Level FlightAware ADS-B
Sat 12:10:02 AM 41.9690 -87.5090 270° West 166 191 4,100  Level FlightAware ADS-B
Sat 12:10:27 AM 41.9690 -87.5380 270° West 167 192 4,100  Level FlightAware ADS-B
Sat 12:10:47 AM 41.9690 -87.5570 270° West 167 192 4,100  Level FlightAware ADS-B
Sat 12:11:12 AM 41.9690 -87.5830 270° West 167 192 4,100  Level FlightAware ADS-B
Sat 12:11:37 AM 41.9690 -87.6090 270° West 169 194 4,100  Level FlightAware ADS-B
Sat 12:12:07 AM 41.9690 -87.6390 270° West 160 184 4,100 -109 Level FlightAware ADS-B
Sat 12:12:32 AM 41.9690 -87.6610 270° West 160 184 4,000 -545 Descending FlightAware ADS-B
Sat 12:13:02 AM 41.9690 -87.6920 270° West 153 176 3,600 -800 Descending FlightAware ADS-B
Sat 12:13:32 AM 41.9690 -87.7190 270° West 148 170 3,200 -873 Descending FlightAware ADS-B
Sat 12:13:57 AM 41.9690 -87.7440 270° West 150 173 2,800 -873 Descending FlightAware ADS-B
Sat 12:14:27 AM 41.9690 -87.7700 270° West 147 169 2,400 -800 Descending FlightAware ADS-B
Sat 12:14:42 AM 41.9690 -87.7820 270° West 134 154 2,200 -750 Descending FlightAware ADS-B
Sat 12:15:07 AM 41.9690 -87.8030 270° West 126 145 1,900 -655 Descending FlightAware ADS-B
Sat 12:15:37 AM 41.9690 -87.8240 270° West 119 137 1,600 -700 Descending FlightAware ADS-B
Sat 12:16:07 AM 41.9690 -87.8490 270° West 122 140 1,200 -764 Descending FlightAware ADS-B
Sat 12:16:32 AM 41.9690 -87.8700 270° West 124 143 900 -600 Descending FlightAware ADS-B
Sat 12:16:37 AM 41.9690 -87.8730 270° West 123 142 900  Level FlightAware ADS-B

Login

Don't have an account? Register now (free) for customized features, flight alerts, and more!